createdAt,value
2018-02-24T00:00:16.398Z,-3.90
2018-02-24T00:02:43.908Z,-3.93
2018-02-24T00:05:11.387Z,-3.92
2018-02-24T00:07:38.869Z,-3.94
2018-02-24T00:10:06.344Z,-3.92
2018-02-24T00:12:33.961Z,-3.91
2018-02-24T00:15:01.470Z,-3.96
2018-02-24T00:17:28.958Z,-3.98
2018-02-24T00:19:56.457Z,-3.99
2018-02-24T00:22:23.914Z,-3.99
2018-02-24T00:24:51.457Z,-3.98
2018-02-24T00:27:19.144Z,-4.00
2018-02-24T00:29:46.665Z,-4.00
2018-02-24T00:32:14.146Z,-3.99
2018-02-24T00:34:41.720Z,-4.00
2018-02-24T00:37:09.193Z,-3.98
2018-02-24T00:39:36.684Z,-3.93
2018-02-24T00:42:04.178Z,-3.95
2018-02-24T00:44:31.648Z,-3.96
2018-02-24T00:46:59.125Z,-3.96
2018-02-24T00:49:26.613Z,-3.96
2018-02-24T00:51:54.079Z,-3.94
2018-02-24T00:54:21.550Z,-3.91
2018-02-24T00:56:49.135Z,-3.91
2018-02-24T00:59:16.605Z,-3.92
2018-02-24T01:01:44.078Z,-3.92
2018-02-24T01:04:11.629Z,-3.91
2018-02-24T01:06:39.099Z,-3.88
2018-02-24T01:09:06.550Z,-3.91
2018-02-24T01:11:34.046Z,-3.91
2018-02-24T01:14:01.557Z,-3.90
2018-02-24T01:16:29.028Z,-3.91
2018-02-24T01:18:56.507Z,-3.92
2018-02-24T01:21:24.018Z,-3.87
2018-02-24T01:23:51.486Z,-3.81
2018-02-24T01:26:18.959Z,-3.82
2018-02-24T01:28:46.448Z,-3.82
2018-02-24T01:31:13.913Z,-3.79
2018-02-24T01:33:41.471Z,-3.78
2018-02-24T01:36:08.945Z,-3.79
2018-02-24T01:38:36.414Z,-3.76
2018-02-24T01:41:03.890Z,-3.69
2018-02-24T01:43:31.381Z,-3.62
2018-02-24T01:45:58.852Z,-3.56
2018-02-24T01:48:26.415Z,-3.46
2018-02-24T01:50:53.927Z,-3.42
2018-02-24T01:53:21.394Z,-3.34
2018-02-24T01:55:48.898Z,-3.23
2018-02-24T01:58:16.461Z,-3.09
2018-02-24T02:00:43.955Z,-3.01
2018-02-24T02:03:11.416Z,-2.96
2018-02-24T02:05:38.902Z,-2.92
2018-02-24T02:08:06.377Z,-2.91
2018-02-24T02:10:33.833Z,-2.96
2018-02-24T02:13:01.407Z,-2.91
2018-02-24T02:15:28.865Z,-2.87
2018-02-24T02:17:56.335Z,-2.83
2018-02-24T02:20:23.822Z,-2.75
2018-02-24T02:22:51.326Z,-2.69
2018-02-24T02:25:18.895Z,-2.63
2018-02-24T02:27:46.458Z,-2.61
2018-02-24T02:30:13.915Z,-2.60
2018-02-24T02:32:41.383Z,-2.60
2018-02-24T02:35:08.927Z,-2.52
2018-02-24T02:37:36.379Z,-2.47
2018-02-24T02:40:03.839Z,-2.22
2018-02-24T02:42:31.318Z,-2.44
2018-02-24T02:44:58.779Z,-2.57
2018-02-24T02:47:26.305Z,-2.60
2018-02-24T02:49:53.803Z,-2.59
2018-02-24T02:52:21.267Z,-2.59
2018-02-24T02:54:48.777Z,-2.63
2018-02-24T02:57:16.343Z,-2.57
2018-02-24T02:59:43.808Z,-2.62
2018-02-24T03:02:11.276Z,-2.66
2018-02-24T03:04:38.807Z,-2.68
2018-02-24T03:07:06.275Z,-2.70
2018-02-24T03:09:33.782Z,-2.74
2018-02-24T03:12:01.239Z,-2.73
2018-02-24T03:14:28.694Z,-2.70
2018-02-24T03:16:56.159Z,-2.61
2018-02-24T03:19:23.658Z,-2.55
2018-02-24T03:21:51.137Z,-2.54
2018-02-24T03:24:18.601Z,-2.51
2018-02-24T03:26:46.062Z,-2.46
2018-02-24T03:29:13.577Z,-2.48
2018-02-24T03:31:41.048Z,-2.46
2018-02-24T03:34:08.602Z,-2.47
2018-02-24T03:36:36.167Z,-2.49
2018-02-24T03:39:03.660Z,-2.49
2018-02-24T03:41:31.127Z,-2.51
2018-02-24T03:43:58.635Z,-2.44
2018-02-24T03:46:26.554Z,-2.40
2018-02-24T03:48:54.024Z,-2.36
2018-02-24T03:51:21.473Z,-2.34
2018-02-24T03:53:48.957Z,-2.35
2018-02-24T03:56:16.411Z,-2.30
2018-02-24T03:58:43.878Z,-2.27
2018-02-24T04:01:11.358Z,-2.17
2018-02-24T04:03:38.906Z,-2.17
2018-02-24T04:06:06.358Z,-2.21
2018-02-24T04:08:33.867Z,-2.24
2018-02-24T04:11:01.339Z,-2.23
2018-02-24T04:13:28.818Z,-2.20
2018-02-24T04:15:56.270Z,-2.26
2018-02-24T04:18:23.726Z,-2.21
2018-02-24T04:20:51.219Z,-2.22
2018-02-24T04:23:18.675Z,-2.23
2018-02-24T04:25:46.139Z,-2.29
2018-02-24T04:28:13.605Z,-2.35
2018-02-24T04:30:41.096Z,-2.37
2018-02-24T04:33:08.554Z,-2.38
2018-02-24T04:35:36.058Z,-2.39
2018-02-24T04:38:03.606Z,-2.42
2018-02-24T04:40:31.070Z,-2.47
2018-02-24T04:42:58.524Z,-2.45
2018-02-24T04:45:26.006Z,-2.47
2018-02-24T04:47:53.589Z,-2.50
2018-02-24T04:50:21.037Z,-2.46
2018-02-24T04:52:48.508Z,-2.43
2018-02-24T04:55:16.010Z,-2.48
2018-02-24T04:57:43.482Z,-2.52
2018-02-24T05:00:10.933Z,-2.51
2018-02-24T05:02:38.419Z,-2.48
2018-02-24T05:05:05.945Z,-2.51
2018-02-24T05:07:33.409Z,-2.51
2018-02-24T05:10:00.889Z,-2.49
2018-02-24T05:12:28.341Z,-2.50
2018-02-24T05:14:55.825Z,-2.47
2018-02-24T05:17:23.284Z,-2.46
2018-02-24T05:19:50.743Z,-2.45
2018-02-24T05:22:18.242Z,-2.40
2018-02-24T05:24:45.704Z,-2.39
2018-02-24T05:27:13.171Z,-2.33
2018-02-24T05:29:40.651Z,-2.27
2018-02-24T05:32:08.106Z,-2.22
2018-02-24T05:34:35.557Z,-2.18
2018-02-24T05:37:03.029Z,-2.20
2018-02-24T05:39:30.487Z,-2.17
2018-02-24T05:41:58.082Z,-2.11
2018-02-24T05:44:25.567Z,-2.06
2018-02-24T05:46:53.026Z,-2.04
2018-02-24T05:49:20.482Z,-2.00
2018-02-24T05:51:48.042Z,-2.02
2018-02-24T05:54:15.499Z,-2.04
2018-02-24T05:56:43.093Z,-2.03
2018-02-24T05:59:10.574Z,-2.03
2018-02-24T06:01:38.029Z,-2.07
2018-02-24T06:04:05.486Z,-2.15
2018-02-24T06:06:32.961Z,-2.19
2018-02-24T06:09:00.535Z,-2.20
2018-02-24T06:11:28.015Z,-2.19
2018-02-24T06:13:55.505Z,-2.25
2018-02-24T06:16:23.013Z,-2.23
2018-02-24T06:18:50.494Z,-2.22
2018-02-24T06:21:18.025Z,-2.25
2018-02-24T06:23:45.438Z,-2.25
2018-02-24T06:26:12.984Z,-2.23
2018-02-24T06:28:40.442Z,-2.22
2018-02-24T06:31:07.902Z,-2.19
2018-02-24T06:33:35.385Z,-2.21
2018-02-24T06:36:02.830Z,-2.20
2018-02-24T06:38:30.327Z,-2.21
2018-02-24T06:40:57.793Z,-2.18
2018-02-24T06:43:25.528Z,-2.18
2018-02-24T06:45:53.010Z,-2.19
2018-02-24T06:48:20.621Z,-2.20
2018-02-24T06:50:48.070Z,-2.18
2018-02-24T06:53:15.515Z,-2.15
2018-02-24T06:55:43.026Z,-2.15
2018-02-24T06:58:10.470Z,-2.13
2018-02-24T07:00:37.954Z,-2.11
2018-02-24T07:03:05.401Z,-2.11
2018-02-24T07:05:32.851Z,-2.07
2018-02-24T07:08:00.321Z,-2.03
2018-02-24T07:10:27.769Z,-1.95
2018-02-24T07:12:55.231Z,-1.94
2018-02-24T07:15:22.810Z,-1.91
2018-02-24T07:17:50.262Z,-1.90
2018-02-24T07:20:17.744Z,-1.89
2018-02-24T07:22:45.200Z,-1.82
2018-02-24T07:25:12.661Z,-1.78
2018-02-24T07:27:40.138Z,-1.81
2018-02-24T07:30:07.596Z,-1.86
2018-02-24T07:32:35.106Z,-1.85
2018-02-24T07:35:02.596Z,-1.79
2018-02-24T07:37:30.144Z,-1.74
2018-02-24T07:39:57.619Z,-1.75
2018-02-24T07:42:25.066Z,-1.65
2018-02-24T07:44:52.518Z,-1.56
2018-02-24T07:47:19.998Z,-1.44
2018-02-24T07:49:47.450Z,-1.42
2018-02-24T07:52:14.962Z,-1.32
2018-02-24T07:54:42.518Z,-1.32
2018-02-24T07:57:09.998Z,-1.30
2018-02-24T07:59:37.446Z,-1.31
2018-02-24T08:02:04.894Z,-1.38
2018-02-24T08:04:32.396Z,-1.30
2018-02-24T08:06:59.841Z,-1.25
2018-02-24T08:09:27.310Z,-1.24
2018-02-24T08:11:54.775Z,-1.36
2018-02-24T08:14:22.242Z,-1.12
2018-02-24T08:16:49.718Z,-0.99
2018-02-24T08:19:17.161Z,-0.96
2018-02-24T08:21:44.655Z,-1.07
2018-02-24T08:24:12.138Z,-1.05
2018-02-24T08:26:39.602Z,-1.03
2018-02-24T08:29:07.122Z,-0.98
2018-02-24T08:31:34.688Z,-1.13
2018-02-24T08:34:02.138Z,-1.20
2018-02-24T08:36:29.596Z,-1.10
2018-02-24T08:38:57.066Z,-1.03
2018-02-24T08:41:24.562Z,-1.16
2018-02-24T08:43:52.019Z,-1.15
2018-02-24T08:46:19.502Z,-1.07
2018-02-24T08:48:46.958Z,-1.03
2018-02-24T08:51:14.411Z,-0.94
2018-02-24T08:53:41.878Z,-0.84
2018-02-24T08:56:09.347Z,-0.83
2018-02-24T08:58:36.794Z,-0.79
2018-02-24T09:01:04.366Z,-0.80
2018-02-24T09:03:31.813Z,-0.94
2018-02-24T09:05:59.269Z,-0.84
2018-02-24T09:08:26.846Z,-0.70
2018-02-24T09:10:54.302Z,-0.64
2018-02-24T09:13:21.762Z,-0.46
2018-02-24T09:15:49.330Z,-0.63
2018-02-24T09:18:16.875Z,-0.92
2018-02-24T09:20:44.353Z,-1.08
2018-02-24T09:23:11.842Z,-0.94
2018-02-24T09:25:39.294Z,-0.73
2018-02-24T09:28:06.742Z,-0.77
2018-02-24T09:30:34.205Z,-0.69
2018-02-24T09:33:01.752Z,-0.56
2018-02-24T09:35:29.202Z,-0.57
2018-02-24T09:37:56.721Z,-0.64
2018-02-24T09:40:24.180Z,-0.62
2018-02-24T09:42:51.625Z,-0.47
2018-02-24T09:45:19.206Z,-0.25
2018-02-24T09:47:46.720Z,-0.30
2018-02-24T09:50:14.176Z,-0.34
2018-02-24T09:52:41.650Z,-0.36
2018-02-24T09:55:09.099Z,-0.40
2018-02-24T09:57:37.060Z,-0.39
2018-02-24T10:00:04.518Z,-0.39
2018-02-24T10:02:31.993Z,-0.36
2018-02-24T10:04:59.451Z,-0.29
2018-02-24T10:07:26.934Z,-0.20
2018-02-24T10:09:54.398Z,0.01
2018-02-24T10:12:21.867Z,0.10
2018-02-24T10:14:49.319Z,0.09
2018-02-24T10:17:16.865Z,-0.05
2018-02-24T10:19:44.322Z,-0.20
2018-02-24T10:22:11.776Z,-0.17
2018-02-24T10:24:39.288Z,-0.34
2018-02-24T10:27:06.754Z,-0.48
2018-02-24T10:29:34.244Z,-0.49
2018-02-24T10:32:01.695Z,-0.39
2018-02-24T10:34:29.184Z,-0.30
2018-02-24T10:36:56.633Z,-0.12
2018-02-24T10:39:24.185Z,-0.05
2018-02-24T10:41:51.662Z,-0.07
2018-02-24T10:44:19.255Z,-0.26
2018-02-24T10:46:46.782Z,-0.20
2018-02-24T10:49:14.279Z,-0.03
2018-02-24T10:51:41.735Z,0.17
2018-02-24T10:54:09.214Z,0.04
2018-02-24T10:56:36.662Z,-0.15
2018-02-24T10:59:04.111Z,-0.10
2018-02-24T11:01:31.593Z,-0.16
2018-02-24T11:03:59.037Z,-0.15
2018-02-24T11:06:26.492Z,-0.04
2018-02-24T11:08:53.963Z,0.03
2018-02-24T11:11:21.455Z,0.04
2018-02-24T11:13:48.882Z,0.14
2018-02-24T11:16:16.343Z,-0.01
2018-02-24T11:18:43.790Z,-0.04
2018-02-24T11:21:11.259Z,0.07
2018-02-24T11:23:38.703Z,-0.15
2018-02-24T11:26:06.154Z,-0.11
2018-02-24T11:28:33.617Z,0.02
2018-02-24T11:31:01.086Z,0.06
2018-02-24T11:33:28.547Z,0.12
2018-02-24T11:35:55.990Z,0.08
2018-02-24T11:38:23.458Z,0.05
2018-02-24T11:40:50.906Z,0.12
2018-02-24T11:43:18.386Z,0.06
2018-02-24T11:45:45.892Z,0.31
2018-02-24T11:48:13.397Z,0.05
2018-02-24T11:50:40.948Z,-0.16
2018-02-24T11:53:08.406Z,-0.23
2018-02-24T11:55:35.866Z,-0.27
2018-02-24T11:58:03.345Z,-0.25
2018-02-24T12:00:30.793Z,-0.32
2018-02-24T12:02:58.337Z,-0.25
2018-02-24T12:05:25.909Z,-0.24
2018-02-24T12:07:53.385Z,-0.22
2018-02-24T12:10:20.913Z,-0.17
2018-02-24T12:12:48.358Z,-0.25
2018-02-24T12:15:15.882Z,-0.09
2018-02-24T12:17:43.326Z,0.03
2018-02-24T12:20:10.766Z,0.21
2018-02-24T12:22:38.231Z,0.10
2018-02-24T12:25:05.679Z,0.03
2018-02-24T12:27:33.135Z,0.14
2018-02-24T12:30:00.621Z,0.18
2018-02-24T12:32:28.129Z,0.09
2018-02-24T12:34:55.589Z,0.04
2018-02-24T12:37:23.072Z,0.09
2018-02-24T12:39:50.614Z,0.06
2018-02-24T12:42:18.062Z,0.16
2018-02-24T12:44:45.530Z,-0.08
2018-02-24T12:47:12.987Z,-0.23
2018-02-24T12:49:40.446Z,-0.11
2018-02-24T12:52:07.946Z,-0.33
2018-02-24T12:54:35.446Z,-0.29
2018-02-24T12:57:02.907Z,-0.25
2018-02-24T12:59:30.412Z,-0.19
2018-02-24T13:01:57.930Z,-0.10
2018-02-24T13:04:25.478Z,-0.17
2018-02-24T13:06:52.969Z,-0.19
2018-02-24T13:09:20.494Z,-0.18
2018-02-24T13:11:47.949Z,-0.17
2018-02-24T13:14:15.450Z,-0.19
2018-02-24T13:16:43.022Z,-0.05
2018-02-24T13:19:10.472Z,0.20
2018-02-24T13:21:37.987Z,0.08
2018-02-24T13:24:05.543Z,-0.06
2018-02-24T13:26:33.009Z,0.09
2018-02-24T13:29:00.466Z,0.02
2018-02-24T13:31:27.950Z,-0.22
2018-02-24T13:33:55.454Z,-0.24
2018-02-24T13:36:22.920Z,-0.26
2018-02-24T13:38:50.402Z,-0.27
2018-02-24T13:41:17.893Z,-0.33
2018-02-24T13:43:45.353Z,-0.30
2018-02-24T13:46:12.914Z,-0.35
2018-02-24T13:48:40.415Z,-0.34
2018-02-24T13:51:07.862Z,-0.29
2018-02-24T13:53:35.315Z,-0.11
2018-02-24T13:56:02.801Z,-0.01
2018-02-24T13:58:30.335Z,-0.22
2018-02-24T14:00:57.809Z,-0.52
2018-02-24T14:03:25.381Z,-0.60
2018-02-24T14:05:52.982Z,-0.68
2018-02-24T14:08:20.541Z,-0.76
2018-02-24T14:10:48.008Z,-0.82
2018-02-24T14:13:15.514Z,-0.67
2018-02-24T14:15:43.067Z,-0.35
2018-02-24T14:18:10.545Z,-0.20
2018-02-24T14:20:37.989Z,-0.15
2018-02-24T14:23:05.556Z,-0.19
2018-02-24T14:25:33.014Z,-0.27
2018-02-24T14:28:00.467Z,-0.22
2018-02-24T14:30:27.960Z,-0.31
2018-02-24T14:32:55.421Z,-0.51
2018-02-24T14:35:22.882Z,-0.69
2018-02-24T14:37:50.437Z,-0.94
2018-02-24T14:40:17.948Z,-1.04
2018-02-24T14:42:45.504Z,-1.04
2018-02-24T14:45:13.041Z,-1.09
2018-02-24T14:47:40.466Z,-1.05
2018-02-24T14:50:07.924Z,-0.99
2018-02-24T14:52:35.441Z,-0.84
2018-02-24T14:55:03.048Z,-0.83
2018-02-24T14:57:30.550Z,-0.79
2018-02-24T14:59:58.006Z,-0.66
2018-02-24T15:02:25.467Z,-0.71
2018-02-24T15:04:52.925Z,-0.75
2018-02-24T15:07:20.375Z,-0.82
2018-02-24T15:09:47.833Z,-0.87
2018-02-24T15:12:15.303Z,-0.85
2018-02-24T15:14:42.770Z,-0.85
2018-02-24T15:17:10.259Z,-0.90
2018-02-24T15:19:37.749Z,-0.90
2018-02-24T15:22:05.214Z,-0.80
2018-02-24T15:24:32.661Z,-0.86
2018-02-24T15:27:00.153Z,-0.96
2018-02-24T15:29:27.609Z,-1.05
2018-02-24T15:31:55.062Z,-1.04
2018-02-24T15:34:22.551Z,-1.17
2018-02-24T15:36:50.062Z,-1.27
2018-02-24T15:39:17.525Z,-1.32
2018-02-24T15:41:45.003Z,-1.35
2018-02-24T15:44:12.450Z,-1.40
2018-02-24T15:46:39.903Z,-1.38
2018-02-24T15:49:07.368Z,-1.41
2018-02-24T15:51:34.892Z,-1.48
2018-02-24T15:54:03.174Z,-1.50
2018-02-24T15:56:30.621Z,-1.50
2018-02-24T15:58:58.076Z,-1.48
2018-02-24T16:01:25.558Z,-1.37
2018-02-24T16:03:53.028Z,-1.34
2018-02-24T16:06:20.497Z,-1.36
2018-02-24T16:08:47.954Z,-1.50
2018-02-24T16:11:15.434Z,-1.55
2018-02-24T16:13:42.918Z,-1.58
2018-02-24T16:16:10.371Z,-1.63
2018-02-24T16:18:37.826Z,-1.66
2018-02-24T16:21:05.291Z,-1.72
2018-02-24T16:23:32.738Z,-1.71
2018-02-24T16:26:00.284Z,-1.74
2018-02-24T16:28:27.739Z,-1.76
2018-02-24T16:30:55.193Z,-1.79
2018-02-24T16:33:22.680Z,-1.77
2018-02-24T16:35:50.131Z,-1.79
2018-02-24T16:38:17.589Z,-1.79
2018-02-24T16:40:45.085Z,-1.83
2018-02-24T16:43:12.534Z,-1.84
2018-02-24T16:45:39.978Z,-1.87
2018-02-24T16:48:07.514Z,-1.87
2018-02-24T16:50:34.968Z,-1.95
2018-02-24T16:53:02.464Z,-2.01
2018-02-24T16:55:30.018Z,-2.06
2018-02-24T16:57:57.465Z,-2.07
2018-02-24T17:00:24.918Z,-2.10
2018-02-24T17:02:52.527Z,-2.12
2018-02-24T17:05:19.981Z,-2.13
2018-02-24T17:07:47.510Z,-2.17
2018-02-24T17:10:14.978Z,-2.18
2018-02-24T17:12:42.439Z,-2.21
2018-02-24T17:15:09.931Z,-2.21
2018-02-24T17:17:37.403Z,-2.24
2018-02-24T17:20:04.855Z,-2.21
2018-02-24T17:22:32.334Z,-2.22
2018-02-24T17:24:59.814Z,-2.25
2018-02-24T17:27:27.279Z,-2.27
2018-02-24T17:29:54.767Z,-2.30
2018-02-24T17:32:22.226Z,-2.32
2018-02-24T17:34:49.674Z,-2.36
2018-02-24T17:37:17.156Z,-2.36
2018-02-24T17:39:44.658Z,-2.31
2018-02-24T17:42:12.114Z,-2.35
2018-02-24T17:44:39.678Z,-2.38
2018-02-24T17:47:07.131Z,-2.39
2018-02-24T17:49:34.602Z,-2.43
2018-02-24T17:52:02.050Z,-2.43
2018-02-24T17:54:29.498Z,-2.48
2018-02-24T17:56:56.959Z,-2.47
2018-02-24T17:59:24.401Z,-2.46
2018-02-24T18:01:51.863Z,-2.49
2018-02-24T18:04:19.329Z,-2.55
2018-02-24T18:06:46.892Z,-2.57
2018-02-24T18:09:14.364Z,-2.58
2018-02-24T18:11:41.854Z,-2.60
2018-02-24T18:14:09.363Z,-2.60
2018-02-24T18:16:36.854Z,-2.61
2018-02-24T18:19:04.316Z,-2.61
2018-02-24T18:21:31.767Z,-2.64
2018-02-24T18:23:59.450Z,-2.66
2018-02-24T18:26:26.959Z,-2.69
2018-02-24T18:28:54.419Z,-2.72
2018-02-24T18:31:21.970Z,-2.73
2018-02-24T18:33:49.892Z,-2.79
2018-02-24T18:36:17.346Z,-2.79
2018-02-24T18:38:44.812Z,-2.82
2018-02-24T18:41:12.294Z,-2.83
2018-02-24T18:43:39.774Z,-2.83
2018-02-24T18:46:07.229Z,-2.86
2018-02-24T18:48:34.685Z,-2.88
2018-02-24T18:51:02.164Z,-2.87
2018-02-24T18:53:29.610Z,-2.89
2018-02-24T18:55:57.062Z,-2.94
2018-02-24T18:58:24.542Z,-2.96
2018-02-24T19:00:52.017Z,-2.97
2018-02-24T19:03:19.473Z,-2.98
2018-02-24T19:05:46.926Z,-2.97
2018-02-24T19:08:14.397Z,-3.02
2018-02-24T19:10:41.883Z,-3.03
2018-02-24T19:13:09.334Z,-3.02
2018-02-24T19:15:36.864Z,-3.05
2018-02-24T19:18:04.342Z,-3.09
2018-02-24T19:20:31.877Z,-3.12
2018-02-24T19:22:59.325Z,-3.15
2018-02-24T19:25:26.803Z,-3.20
2018-02-24T19:27:54.306Z,-3.22
2018-02-24T19:30:21.770Z,-3.24
2018-02-24T19:32:49.248Z,-3.24
2018-02-24T19:35:16.705Z,-3.27
2018-02-24T19:37:44.178Z,-3.29
2018-02-24T19:40:11.647Z,-3.30
2018-02-24T19:42:39.098Z,-3.31
2018-02-24T19:45:06.652Z,-3.32
2018-02-24T19:47:34.172Z,-3.34
2018-02-24T19:50:01.638Z,-3.35
2018-02-24T19:52:29.187Z,-3.39
2018-02-24T19:54:56.646Z,-3.40
2018-02-24T19:57:24.123Z,-3.46
2018-02-24T19:59:51.582Z,-3.48
2018-02-24T20:02:19.027Z,-3.52
2018-02-24T20:04:46.514Z,-3.54
2018-02-24T20:07:13.979Z,-3.55
2018-02-24T20:09:41.433Z,-3.57
2018-02-24T20:12:08.926Z,-3.61
2018-02-24T20:14:36.379Z,-3.64
2018-02-24T20:17:03.843Z,-3.67
2018-02-24T20:19:31.360Z,-3.68
2018-02-24T20:21:58.867Z,-3.70
2018-02-24T20:24:26.419Z,-3.72
2018-02-24T20:26:53.891Z,-3.76
2018-02-24T20:29:21.458Z,-3.76
2018-02-24T20:31:48.947Z,-3.76
2018-02-24T20:34:16.460Z,-3.78
2018-02-24T20:36:43.914Z,-3.80
2018-02-24T20:39:11.406Z,-3.80
2018-02-24T20:41:38.857Z,-3.86
2018-02-24T20:44:06.321Z,-3.85
2018-02-24T20:46:33.810Z,-3.88
2018-02-24T20:49:01.356Z,-3.92
2018-02-24T20:51:28.810Z,-3.92
2018-02-24T20:53:56.270Z,-3.96
2018-02-24T20:56:23.783Z,-4.00
2018-02-24T20:58:51.268Z,-4.03
2018-02-24T21:01:18.805Z,-4.06
2018-02-24T21:03:46.266Z,-4.06
2018-02-24T21:09:04.115Z,-4.11
2018-02-24T21:11:31.689Z,-4.14
2018-02-24T21:13:59.142Z,-4.19
2018-02-24T21:16:26.614Z,-4.23
2018-02-24T21:18:54.147Z,-4.25
2018-02-24T21:21:21.610Z,-4.28
2018-02-24T21:23:49.205Z,-4.34
2018-02-24T21:26:16.674Z,-4.31
2018-02-24T21:28:44.158Z,-4.38
2018-02-24T21:31:11.728Z,-4.42
2018-02-24T21:33:39.321Z,-4.44
2018-02-24T21:36:06.777Z,-4.48
2018-02-24T21:38:34.267Z,-4.48
2018-02-24T21:41:01.726Z,-4.53
2018-02-24T21:43:29.190Z,-4.56
2018-02-24T21:45:56.663Z,-4.59
2018-02-24T21:48:24.132Z,-4.60
2018-02-24T21:50:51.694Z,-4.60
2018-02-24T21:53:19.158Z,-4.64
2018-02-24T21:55:46.622Z,-4.66
2018-02-24T21:58:14.119Z,-4.69
2018-02-24T22:00:41.584Z,-4.69
2018-02-24T22:03:09.047Z,-4.71
2018-02-24T22:05:36.569Z,-4.73
2018-02-24T22:08:04.016Z,-4.78
2018-02-24T22:10:31.482Z,-4.78
2018-02-24T22:12:59.015Z,-4.78
2018-02-24T22:15:26.490Z,-4.82
2018-02-24T22:17:53.974Z,-4.82
2018-02-24T22:20:21.462Z,-4.85
2018-02-24T22:22:48.915Z,-4.88
2018-02-24T22:25:16.450Z,-4.88
2018-02-24T22:27:43.954Z,-4.88
2018-02-24T22:30:11.443Z,-4.88
2018-02-24T22:32:38.934Z,-4.92
2018-02-24T22:35:06.391Z,-4.94
2018-02-24T22:37:33.889Z,-5.00
2018-02-24T22:40:01.378Z,-5.02
2018-02-24T22:42:28.914Z,-5.01
2018-02-24T22:44:56.410Z,-5.02
2018-02-24T22:47:23.893Z,-5.05
2018-02-24T22:49:51.350Z,-5.05
2018-02-24T22:52:18.813Z,-5.04
2018-02-24T22:54:46.294Z,-5.09
2018-02-24T22:57:13.762Z,-5.08
2018-02-24T22:59:41.360Z,-5.06
2018-02-24T23:02:08.830Z,-5.11
2018-02-24T23:04:36.307Z,-5.11
2018-02-24T23:07:03.762Z,-5.12
2018-02-24T23:09:31.287Z,-5.18
2018-02-24T23:11:58.788Z,-5.20
2018-02-24T23:14:26.259Z,-5.18
2018-02-24T23:16:53.718Z,-5.18
2018-02-24T23:19:21.275Z,-5.18
2018-02-24T23:21:48.882Z,-5.22
2018-02-24T23:24:16.426Z,-5.26
2018-02-24T23:26:43.946Z,-5.29
2018-02-24T23:29:11.423Z,-5.29
2018-02-24T23:31:38.894Z,-5.32
2018-02-24T23:34:06.377Z,-5.37
2018-02-24T23:36:33.840Z,-5.40
2018-02-24T23:39:01.357Z,-5.48
2018-02-24T23:41:28.909Z,-5.54
2018-02-24T23:43:56.380Z,-5.63
2018-02-24T23:46:23.872Z,-5.64
2018-02-24T23:48:51.354Z,-5.55
2018-02-24T23:51:18.814Z,-5.51
2018-02-24T23:53:46.289Z,-5.63
2018-02-24T23:56:13.749Z,-5.70
2018-02-24T23:58:41.300Z,-5.71
